createdAt,value
2023-05-22T00:01:12.149Z,39.96
2023-05-22T00:03:40.750Z,39.86
2023-05-22T00:06:10.091Z,40.02
2023-05-22T00:08:37.311Z,40.00
2023-05-22T00:11:04.481Z,40.80
2023-05-22T00:13:31.703Z,40.27
2023-05-22T00:15:58.704Z,40.54
2023-05-22T00:18:27.028Z,40.43
2023-05-22T00:20:54.230Z,40.37
2023-05-22T00:23:22.010Z,40.57
2023-05-22T00:25:50.666Z,40.81
2023-05-22T00:28:17.791Z,40.11
2023-05-22T00:30:45.944Z,41.43
2023-05-22T00:33:12.947Z,40.91
2023-05-22T00:35:39.932Z,40.89
2023-05-22T00:38:08.789Z,40.90
2023-05-22T00:40:36.141Z,40.53
2023-05-22T00:43:08.219Z,41.75
2023-05-22T00:45:35.309Z,40.38
2023-05-22T00:48:02.388Z,40.89
2023-05-22T00:50:29.529Z,41.01
2023-05-22T00:52:56.724Z,41.47
2023-05-22T00:55:23.736Z,42.18
2023-05-22T00:57:51.868Z,41.45
2023-05-22T01:00:19.477Z,41.22
2023-05-22T01:02:46.614Z,41.18
2023-05-22T01:05:17.992Z,41.25
2023-05-22T01:07:46.344Z,41.35
2023-05-22T01:10:13.454Z,41.68
2023-05-22T01:13:01.865Z,39.72
2023-05-22T01:15:56.600Z,39.93
2023-05-22T01:18:41.717Z,40.80
2023-05-22T01:21:30.061Z,39.88
2023-05-22T01:24:47.069Z,39.63
2023-05-22T01:27:54.200Z,40.05
2023-05-22T01:30:47.237Z,41.09
2023-05-22T01:33:17.595Z,42.72
2023-05-22T01:35:51.717Z,42.49
2023-05-22T01:38:19.760Z,42.44
2023-05-22T01:40:47.639Z,42.13
2023-05-22T01:43:16.445Z,42.43
2023-05-22T01:45:43.729Z,42.64
2023-05-22T01:48:12.027Z,42.52
2023-05-22T01:50:40.821Z,42.53
2023-05-22T01:53:26.488Z,40.82
2023-05-22T01:56:06.378Z,41.50
2023-05-22T01:58:50.504Z,41.46
2023-05-22T02:01:22.508Z,43.41
2023-05-22T02:04:10.026Z,42.69
2023-05-22T02:07:01.068Z,42.60
2023-05-22T02:09:33.190Z,42.47
2023-05-22T02:12:01.127Z,42.68
2023-05-22T02:14:30.197Z,43.12
2023-05-22T02:16:58.022Z,43.17
2023-05-22T02:19:27.016Z,43.15
2023-05-22T02:21:54.211Z,42.46
2023-05-22T02:24:23.547Z,42.55
2023-05-22T02:26:51.911Z,40.63
2023-05-22T02:29:19.157Z,42.83
2023-05-22T02:31:46.381Z,42.64
2023-05-22T02:34:13.476Z,43.29
2023-05-22T02:36:41.278Z,43.61
2023-05-22T02:39:08.810Z,43.24
2023-05-22T02:41:35.805Z,43.30
2023-05-22T02:44:03.187Z,43.06
2023-05-22T02:46:30.391Z,43.34
2023-05-22T02:48:57.427Z,43.12
2023-05-22T02:51:24.431Z,43.08
2023-05-22T02:53:52.127Z,42.88
2023-05-22T02:56:20.894Z,42.90
2023-05-22T02:58:48.281Z,43.48
2023-05-22T03:01:15.474Z,43.53
2023-05-22T03:03:43.630Z,43.59
2023-05-22T03:06:10.960Z,44.00
2023-05-22T03:08:41.531Z,43.83
2023-05-22T03:11:09.221Z,44.13
2023-05-22T03:13:36.605Z,44.70
2023-05-22T03:16:03.927Z,45.49
2023-05-22T03:18:31.222Z,45.42
2023-05-22T03:20:58.246Z,46.55
2023-05-22T03:23:25.397Z,46.25
2023-05-22T03:25:53.131Z,46.11
2023-05-22T03:28:21.299Z,46.16
2023-05-22T03:30:49.426Z,46.40
2023-05-22T03:33:21.467Z,45.32
2023-05-22T03:35:50.090Z,46.29
2023-05-22T03:38:17.097Z,46.20
2023-05-22T03:40:44.298Z,46.45
2023-05-22T03:43:11.349Z,46.27
2023-05-22T03:45:39.288Z,46.17
2023-05-22T03:48:06.448Z,46.56
2023-05-22T03:50:33.593Z,46.94
2023-05-22T03:53:01.236Z,47.15
2023-05-22T03:55:30.741Z,46.80
2023-05-22T03:57:57.780Z,46.87
2023-05-22T04:00:26.786Z,47.32
2023-05-22T04:02:54.708Z,47.36
2023-05-22T04:05:24.413Z,46.59
2023-05-22T04:07:51.537Z,46.69
2023-05-22T04:10:20.922Z,47.15
2023-05-22T04:12:47.921Z,47.15
2023-05-22T04:15:14.988Z,46.37
2023-05-22T04:17:42.132Z,46.69
2023-05-22T04:20:09.825Z,46.90
2023-05-22T04:22:37.135Z,47.35
2023-05-22T04:25:04.419Z,48.40
2023-05-22T04:27:33.166Z,47.84
2023-05-22T04:30:03.598Z,47.52
2023-05-22T04:32:31.832Z,47.78
2023-05-22T04:35:00.398Z,47.85
2023-05-22T04:37:28.708Z,47.73
2023-05-22T04:39:58.200Z,47.21
2023-05-22T04:42:25.319Z,46.87
2023-05-22T04:44:57.965Z,47.38
2023-05-22T04:47:24.991Z,47.40
2023-05-22T04:49:52.036Z,48.44
2023-05-22T04:52:19.092Z,47.84
2023-05-22T04:55:06.695Z,47.43
2023-05-22T04:57:52.779Z,47.16
2023-05-22T05:00:38.907Z,47.52
2023-05-22T05:03:08.161Z,48.07
2023-05-22T05:05:35.619Z,48.26
2023-05-22T05:08:02.960Z,48.62
2023-05-22T05:10:29.998Z,48.12
2023-05-22T05:12:57.051Z,48.50
2023-05-22T05:15:24.097Z,48.65
2023-05-22T05:17:51.461Z,48.40
2023-05-22T05:20:18.737Z,48.60
2023-05-22T05:22:46.326Z,48.81
2023-05-22T05:25:14.611Z,48.83
2023-05-22T05:27:41.729Z,49.18
2023-05-22T05:30:10.659Z,48.93
2023-05-22T05:32:48.029Z,50.08
2023-05-22T05:35:31.578Z,48.87
2023-05-22T05:38:04.389Z,50.05
2023-05-22T05:40:33.690Z,50.15
2023-05-22T05:43:00.791Z,48.97
2023-05-22T05:45:29.588Z,48.85
2023-05-22T05:47:57.222Z,50.04
2023-05-22T05:50:24.452Z,49.18
2023-05-22T05:52:51.556Z,49.19
2023-05-22T05:55:19.833Z,48.64
2023-05-22T05:57:48.257Z,48.72
2023-05-22T06:00:22.580Z,48.82
2023-05-22T06:02:51.426Z,49.61
2023-05-22T06:05:37.117Z,49.18
2023-05-22T06:08:26.870Z,49.04
2023-05-22T06:10:54.051Z,48.97
2023-05-22T06:13:33.227Z,48.68
2023-05-22T06:16:04.096Z,48.92
2023-05-22T06:18:32.945Z,48.72
2023-05-22T06:21:00.580Z,49.74
2023-05-22T06:23:27.561Z,49.19
2023-05-22T06:25:55.869Z,48.54
2023-05-22T06:28:23.588Z,50.79
2023-05-22T06:30:51.036Z,50.67
2023-05-22T06:33:21.145Z,50.29
2023-05-22T06:35:48.412Z,50.93
2023-05-22T06:38:16.493Z,51.25
2023-05-22T06:40:44.281Z,50.59
2023-05-22T06:43:18.621Z,51.14
2023-05-22T06:45:51.193Z,51.20
2023-05-22T06:48:24.276Z,51.51
2023-05-22T06:51:01.174Z,51.73
2023-05-22T06:53:28.917Z,51.65
2023-05-22T06:55:57.047Z,52.50
2023-05-22T06:58:34.896Z,53.17
2023-05-22T07:01:05.099Z,51.73
2023-05-22T07:03:39.761Z,51.72
2023-05-22T07:06:33.585Z,51.78
2023-05-22T07:09:02.824Z,50.81
2023-05-22T07:11:29.905Z,51.04
2023-05-22T07:13:56.920Z,51.67
2023-05-22T07:16:25.607Z,50.76
2023-05-22T07:18:53.052Z,51.18
2023-05-22T07:21:23.640Z,51.71
2023-05-22T07:23:52.648Z,50.93
2023-05-22T07:26:19.727Z,51.78
2023-05-22T07:28:55.148Z,50.79
2023-05-22T07:31:22.222Z,51.36
2023-05-22T07:33:49.901Z,51.26
2023-05-22T07:36:18.908Z,51.25
2023-05-22T07:38:46.565Z,50.47
2023-05-22T07:41:13.958Z,50.30
2023-05-22T07:43:40.997Z,51.31
2023-05-22T07:46:11.474Z,50.38
2023-05-22T07:48:48.126Z,50.34
2023-05-22T07:51:16.736Z,50.41
2023-05-22T07:53:45.099Z,50.26
2023-05-22T07:56:12.104Z,50.85
2023-05-22T07:58:40.064Z,51.39
2023-05-22T08:01:09.383Z,50.62
2023-05-22T08:03:36.832Z,51.07
2023-05-22T08:06:04.459Z,51.58
2023-05-22T08:08:32.695Z,50.98
2023-05-22T08:11:04.288Z,50.98
2023-05-22T08:13:32.206Z,51.16
2023-05-22T08:16:00.459Z,52.07
2023-05-22T08:18:29.261Z,51.90
2023-05-22T08:20:56.861Z,51.28
2023-05-22T08:23:24.066Z,51.23
2023-05-22T08:25:51.143Z,51.72
2023-05-22T08:28:18.327Z,51.16
2023-05-22T08:30:45.554Z,51.96
2023-05-22T08:33:12.634Z,51.79
2023-05-22T08:35:39.752Z,51.46
2023-05-22T08:38:07.265Z,51.94
2023-05-22T08:40:39.383Z,51.16
2023-05-22T08:43:06.910Z,51.17
2023-05-22T08:45:34.664Z,51.61
2023-05-22T08:48:06.334Z,51.02
2023-05-22T08:50:40.656Z,51.72
2023-05-22T08:53:11.219Z,51.01
2023-05-22T08:55:38.599Z,51.80
2023-05-22T08:58:06.057Z,51.44
2023-05-22T09:00:33.586Z,51.18
2023-05-22T09:03:00.751Z,51.10
2023-05-22T09:05:27.891Z,50.73
2023-05-22T09:08:02.648Z,51.11
2023-05-22T09:10:36.000Z,50.85
2023-05-22T09:13:11.529Z,50.75
2023-05-22T09:15:38.593Z,50.94
2023-05-22T09:18:06.488Z,50.87
2023-05-22T09:20:38.955Z,50.94
2023-05-22T09:23:17.541Z,51.02
2023-05-22T09:25:45.491Z,50.99
2023-05-22T09:28:13.241Z,50.82
2023-05-22T09:30:42.469Z,50.32
2023-05-22T09:33:14.124Z,50.07
2023-05-22T09:35:42.094Z,49.62
2023-05-22T09:38:10.308Z,49.38
2023-05-22T09:40:43.121Z,49.35
2023-05-22T09:43:11.182Z,48.98
2023-05-22T09:45:39.242Z,48.45
2023-05-22T09:48:08.593Z,49.35
2023-05-22T09:50:36.960Z,48.82
2023-05-22T09:53:04.975Z,47.33
2023-05-22T09:55:33.617Z,47.87
2023-05-22T09:58:05.294Z,47.76
2023-05-22T10:00:35.125Z,46.50
2023-05-22T10:03:17.968Z,47.24
2023-05-22T10:05:52.386Z,48.15
2023-05-22T10:08:32.729Z,48.51
2023-05-22T10:11:00.021Z,48.56
2023-05-22T10:13:27.842Z,48.40
2023-05-22T10:15:55.015Z,48.60
2023-05-22T10:18:23.087Z,48.18
2023-05-22T10:20:50.307Z,47.47
2023-05-22T10:23:18.630Z,47.09
2023-05-22T10:25:46.515Z,46.91
2023-05-22T10:28:24.295Z,47.36
2023-05-22T10:31:07.869Z,47.29
2023-05-22T10:34:02.770Z,47.43
2023-05-22T10:37:17.289Z,47.93
2023-05-22T10:40:14.633Z,47.72
2023-05-22T10:42:43.247Z,47.39
2023-05-22T10:45:11.267Z,46.17
2023-05-22T10:47:38.501Z,47.00
2023-05-22T10:50:11.798Z,47.75
2023-05-22T10:52:39.935Z,47.19
2023-05-22T10:55:11.271Z,47.74
2023-05-22T10:57:39.861Z,48.01
2023-05-22T11:00:19.215Z,48.04
2023-05-22T11:02:49.984Z,46.76
2023-05-22T11:05:36.486Z,47.36
2023-05-22T11:08:26.305Z,47.24
2023-05-22T11:10:59.090Z,45.21
2023-05-22T11:13:29.272Z,45.00
2023-05-22T11:15:57.682Z,44.14
2023-05-22T11:18:29.013Z,42.54
2023-05-22T11:20:56.092Z,42.51
2023-05-22T11:23:25.741Z,41.37
2023-05-22T11:25:53.060Z,40.71
2023-05-22T11:28:20.422Z,40.58
2023-05-22T11:30:47.866Z,40.42
2023-05-22T11:33:15.170Z,40.24
2023-05-22T11:35:44.497Z,39.26
2023-05-22T11:38:12.442Z,37.37
2023-05-22T11:40:39.825Z,38.60
2023-05-22T11:43:07.167Z,36.68
2023-05-22T11:45:37.704Z,36.12
2023-05-22T11:48:04.767Z,37.02
2023-05-22T11:50:41.566Z,36.10
2023-05-22T11:53:09.785Z,35.57
2023-05-22T11:55:36.784Z,34.53
2023-05-22T11:58:03.818Z,34.64
2023-05-22T12:00:31.668Z,34.78
2023-05-22T12:02:59.134Z,34.30
2023-05-22T12:05:26.353Z,32.88
2023-05-22T12:07:53.426Z,32.69
2023-05-22T12:10:20.545Z,32.24
2023-05-22T12:12:48.216Z,31.37
2023-05-22T12:15:20.417Z,30.40
2023-05-22T12:17:47.599Z,28.97
2023-05-22T12:20:14.703Z,30.32
2023-05-22T12:22:43.425Z,29.98
2023-05-22T12:25:16.414Z,27.17
2023-05-22T12:27:45.438Z,28.65
2023-05-22T12:30:14.488Z,26.27
2023-05-22T12:32:47.089Z,27.51
2023-05-22T12:35:18.360Z,27.06
2023-05-22T12:37:52.447Z,26.48
2023-05-22T12:40:19.744Z,27.51
2023-05-22T12:42:48.908Z,28.25
2023-05-22T12:45:17.693Z,28.57
2023-05-22T12:47:44.834Z,27.88
2023-05-22T12:50:12.060Z,27.82
2023-05-22T12:52:39.109Z,27.98
2023-05-22T12:55:07.136Z,27.87
2023-05-22T12:57:34.093Z,27.12
2023-05-22T13:00:01.071Z,26.87
2023-05-22T13:02:28.102Z,27.66
2023-05-22T13:04:55.224Z,27.01
2023-05-22T13:07:22.589Z,27.52
2023-05-22T13:09:49.717Z,26.65
2023-05-22T13:12:16.889Z,26.17
2023-05-22T13:14:43.994Z,25.93
2023-05-22T13:17:11.653Z,27.07
2023-05-22T13:19:38.766Z,25.63
2023-05-22T13:22:07.484Z,26.25
2023-05-22T13:24:34.512Z,26.40
2023-05-22T13:27:01.802Z,25.64
2023-05-22T13:29:28.826Z,26.08
2023-05-22T13:31:55.962Z,25.90
2023-05-22T13:34:23.160Z,25.67
2023-05-22T13:36:50.592Z,25.79
2023-05-22T13:39:17.625Z,25.29
2023-05-22T13:41:45.104Z,25.32
2023-05-22T13:44:12.186Z,25.28
2023-05-22T13:46:40.879Z,24.44
2023-05-22T13:49:08.226Z,24.93
2023-05-22T13:51:35.611Z,25.12
2023-05-22T13:54:03.949Z,24.92
2023-05-22T13:56:31.268Z,25.14
2023-05-22T13:58:58.316Z,25.03
2023-05-22T14:01:25.409Z,25.39
2023-05-22T14:03:52.516Z,24.76
2023-05-22T14:06:19.581Z,25.54
2023-05-22T14:08:46.609Z,25.35
2023-05-22T14:11:13.621Z,25.21
2023-05-22T14:13:40.670Z,25.83
2023-05-22T14:16:07.652Z,25.63
2023-05-22T14:18:34.759Z,25.16
2023-05-22T14:21:04.009Z,24.13
2023-05-22T14:23:31.817Z,24.55
2023-05-22T14:25:58.850Z,23.94
2023-05-22T14:28:26.013Z,24.43
2023-05-22T14:30:53.119Z,24.72
2023-05-22T14:33:20.136Z,25.78
2023-05-22T14:35:48.334Z,26.34
2023-05-22T14:38:15.485Z,26.18
2023-05-22T14:40:42.774Z,26.69
2023-05-22T14:43:09.768Z,26.28
2023-05-22T14:45:36.786Z,26.67
2023-05-22T14:48:04.637Z,26.63
2023-05-22T14:50:31.675Z,26.84
2023-05-22T14:52:58.909Z,26.65
2023-05-22T14:55:28.026Z,26.82
2023-05-22T14:57:55.676Z,26.39
2023-05-22T15:00:22.756Z,26.16
2023-05-22T15:02:49.791Z,25.74
2023-05-22T15:05:16.931Z,25.97
2023-05-22T15:07:46.054Z,24.21
2023-05-22T15:10:14.613Z,24.28
2023-05-22T15:12:41.643Z,23.93
2023-05-22T15:15:09.162Z,24.27
2023-05-22T15:17:36.286Z,23.49
2023-05-22T15:20:05.367Z,23.94
2023-05-22T15:22:32.389Z,23.61
2023-05-22T15:25:09.559Z,24.53
2023-05-22T15:27:38.862Z,23.03
2023-05-22T15:30:09.458Z,22.85
2023-05-22T15:32:37.487Z,22.37
2023-05-22T15:35:06.134Z,22.95
2023-05-22T15:37:36.488Z,22.83
2023-05-22T15:40:07.124Z,23.14
2023-05-22T15:42:34.239Z,22.97
2023-05-22T15:45:01.334Z,23.57
2023-05-22T15:47:29.771Z,23.74
2023-05-22T15:49:56.796Z,23.97
2023-05-22T15:52:24.532Z,24.27
2023-05-22T15:54:51.673Z,24.64
2023-05-22T15:57:18.863Z,24.39
2023-05-22T15:59:47.289Z,24.62
2023-05-22T16:02:14.721Z,24.42
2023-05-22T16:04:41.832Z,25.26
2023-05-22T16:07:08.882Z,25.00
2023-05-22T16:09:36.304Z,25.58
2023-05-22T16:12:04.087Z,25.28
2023-05-22T16:14:31.542Z,25.65
2023-05-22T16:16:58.652Z,25.83
2023-05-22T16:19:28.055Z,26.12
2023-05-22T16:21:55.421Z,26.21
2023-05-22T16:24:22.484Z,25.78
2023-05-22T16:26:49.488Z,25.88
2023-05-22T16:29:22.226Z,26.35
2023-05-22T16:31:49.306Z,26.53
2023-05-22T16:34:16.377Z,27.25
2023-05-22T16:36:43.886Z,26.88
2023-05-22T16:39:11.182Z,27.82
2023-05-22T16:41:38.215Z,28.07
2023-05-22T16:44:05.474Z,28.77
2023-05-22T16:46:32.549Z,28.51
2023-05-22T16:48:59.567Z,28.62
2023-05-22T16:51:26.543Z,29.26
2023-05-22T16:53:53.567Z,28.80
2023-05-22T16:56:21.012Z,29.60
2023-05-22T16:58:48.061Z,29.06
2023-05-22T17:01:15.332Z,29.34
2023-05-22T17:03:42.504Z,29.44
2023-05-22T17:06:09.638Z,30.22
2023-05-22T17:08:36.678Z,30.73
2023-05-22T17:11:07.760Z,29.97
2023-05-22T17:13:34.802Z,30.49
2023-05-22T17:16:01.824Z,31.06
2023-05-22T17:18:28.842Z,31.15
2023-05-22T17:20:55.878Z,31.49
2023-05-22T17:23:22.958Z,31.91
2023-05-22T17:25:50.645Z,33.32
2023-05-22T17:28:17.836Z,31.56
2023-05-22T17:30:46.002Z,32.34
2023-05-22T17:33:13.898Z,33.39
2023-05-22T17:35:41.696Z,33.26
2023-05-22T17:38:08.807Z,32.77
2023-05-22T17:40:44.676Z,33.40
2023-05-22T17:43:14.276Z,33.09
2023-05-22T17:45:41.819Z,33.95
2023-05-22T17:48:09.153Z,33.63
2023-05-22T17:50:36.295Z,33.69
2023-05-22T17:53:03.383Z,33.66
2023-05-22T17:55:30.550Z,33.78
2023-05-22T17:57:58.641Z,33.31
2023-05-22T18:00:25.725Z,33.29
2023-05-22T18:02:52.964Z,34.79
2023-05-22T18:05:20.132Z,34.07
2023-05-22T18:07:48.182Z,34.34
2023-05-22T18:10:15.324Z,34.06
2023-05-22T18:12:45.016Z,33.75
2023-05-22T18:15:12.289Z,33.90
2023-05-22T18:17:41.121Z,33.68
2023-05-22T18:20:11.865Z,33.92
2023-05-22T18:22:39.887Z,33.50
2023-05-22T18:25:07.843Z,33.57
2023-05-22T18:27:36.219Z,33.75
2023-05-22T18:30:05.230Z,33.72
2023-05-22T18:32:34.798Z,33.86
2023-05-22T18:35:03.704Z,34.18
2023-05-22T18:37:30.872Z,34.76
2023-05-22T18:39:58.053Z,34.02
2023-05-22T18:42:25.256Z,33.93
2023-05-22T18:44:52.278Z,34.21
2023-05-22T18:47:19.466Z,34.43
2023-05-22T18:49:46.495Z,34.93
2023-05-22T18:52:13.553Z,34.69
2023-05-22T18:54:40.638Z,34.70
2023-05-22T18:57:07.868Z,34.67
2023-05-22T18:59:35.021Z,34.67
2023-05-22T19:02:02.103Z,34.67
2023-05-22T19:04:29.137Z,35.33
2023-05-22T19:06:56.398Z,35.27
2023-05-22T19:09:24.085Z,35.43
2023-05-22T19:11:51.240Z,35.86
2023-05-22T19:14:18.424Z,35.47
2023-05-22T19:16:45.603Z,35.21
2023-05-22T19:19:12.815Z,35.81
2023-05-22T19:21:39.850Z,35.82
2023-05-22T19:24:07.415Z,35.93
2023-05-22T19:26:34.465Z,37.71
2023-05-22T19:29:01.514Z,36.26
2023-05-22T19:31:29.641Z,36.37
2023-05-22T19:33:56.933Z,36.91
2023-05-22T19:36:23.916Z,36.87
2023-05-22T19:38:53.234Z,36.54
2023-05-22T19:41:20.550Z,36.48
2023-05-22T19:43:47.577Z,37.04
2023-05-22T19:46:14.717Z,36.86
2023-05-22T19:48:41.750Z,36.69
2023-05-22T19:51:08.813Z,36.65
2023-05-22T19:53:36.483Z,36.60
2023-05-22T19:56:03.561Z,37.03
2023-05-22T19:58:30.685Z,36.96
2023-05-22T20:00:57.755Z,37.20
2023-05-22T20:03:26.187Z,37.35
2023-05-22T20:05:53.807Z,37.15
2023-05-22T20:08:25.804Z,37.75
2023-05-22T20:10:53.013Z,37.69
2023-05-22T20:13:20.132Z,37.81
2023-05-22T20:15:47.839Z,37.48
2023-05-22T20:18:15.076Z,37.80
2023-05-22T20:20:42.204Z,38.22
2023-05-22T20:23:09.252Z,37.93
2023-05-22T20:25:37.464Z,38.47
2023-05-22T20:28:04.980Z,38.78
2023-05-22T20:30:32.427Z,38.09
2023-05-22T20:32:59.475Z,39.16
2023-05-22T20:35:26.849Z,39.12
2023-05-22T20:37:53.884Z,39.40
2023-05-22T20:40:21.722Z,38.57
2023-05-22T20:42:49.103Z,39.85
2023-05-22T20:45:16.449Z,39.85
2023-05-22T20:47:43.891Z,39.45
2023-05-22T20:50:11.522Z,39.51
2023-05-22T20:52:38.555Z,40.50
2023-05-22T20:55:06.726Z,39.99
2023-05-22T20:57:34.520Z,40.15
2023-05-22T21:00:01.977Z,39.86
2023-05-22T21:02:30.961Z,40.08
2023-05-22T21:04:57.975Z,39.94
2023-05-22T21:07:24.971Z,39.98
2023-05-22T21:09:51.988Z,40.26
2023-05-22T21:12:18.997Z,40.36
2023-05-22T21:14:46.979Z,40.59
2023-05-22T21:17:14.031Z,40.86
2023-05-22T21:19:41.097Z,41.37
2023-05-22T21:22:08.619Z,40.60
2023-05-22T21:24:35.726Z,40.96
2023-05-22T21:27:02.847Z,41.11
2023-05-22T21:29:29.836Z,40.22
2023-05-22T21:31:56.863Z,40.94
2023-05-22T21:34:24.033Z,40.53
2023-05-22T21:36:51.075Z,40.73
2023-05-22T21:39:18.140Z,40.84
2023-05-22T21:41:45.722Z,41.02
2023-05-22T21:44:13.451Z,40.92
2023-05-22T21:46:40.520Z,41.05
2023-05-22T21:49:09.526Z,40.91
2023-05-22T21:51:37.515Z,41.29
2023-05-22T21:54:04.639Z,41.01
2023-05-22T21:56:31.620Z,42.41
2023-05-22T21:58:58.619Z,41.50
2023-05-22T22:01:25.792Z,41.14
2023-05-22T22:03:53.079Z,41.33
2023-05-22T22:06:20.089Z,41.70
2023-05-22T22:08:50.854Z,41.91
2023-05-22T22:11:17.949Z,41.48
2023-05-22T22:13:44.952Z,41.23
2023-05-22T22:16:12.048Z,41.71
2023-05-22T22:18:40.587Z,41.29
2023-05-22T22:21:07.592Z,41.95
2023-05-22T22:23:34.601Z,41.89
2023-05-22T22:26:01.696Z,42.07
2023-05-22T22:28:29.030Z,42.01
2023-05-22T22:30:56.090Z,42.17
2023-05-22T22:33:23.102Z,41.97
2023-05-22T22:35:51.271Z,42.30
2023-05-22T22:38:18.592Z,42.52
2023-05-22T22:40:45.654Z,41.97
2023-05-22T22:43:12.688Z,42.37
2023-05-22T22:45:40.232Z,42.09
2023-05-22T22:48:07.686Z,42.47
2023-05-22T22:50:34.810Z,42.90
2023-05-22T22:53:01.869Z,42.68
2023-05-22T22:55:29.076Z,42.56
2023-05-22T22:57:56.319Z,42.75
2023-05-22T23:00:23.622Z,42.67
2023-05-22T23:02:51.056Z,42.79
2023-05-22T23:05:21.210Z,42.89
2023-05-22T23:07:48.613Z,43.35
2023-05-22T23:10:15.850Z,42.91
2023-05-22T23:12:42.960Z,42.76
2023-05-22T23:15:12.993Z,42.73
2023-05-22T23:17:41.258Z,42.98
2023-05-22T23:20:08.993Z,43.39
2023-05-22T23:22:36.042Z,42.81
2023-05-22T23:25:03.381Z,43.54
2023-05-22T23:27:30.464Z,43.57
2023-05-22T23:29:58.123Z,43.12
2023-05-22T23:32:25.210Z,43.38
2023-05-22T23:34:52.238Z,43.56
2023-05-22T23:37:19.230Z,43.33
2023-05-22T23:39:46.208Z,43.29
2023-05-22T23:42:13.231Z,43.71
2023-05-22T23:44:40.225Z,43.54
2023-05-22T23:47:08.037Z,43.51
2023-05-22T23:49:35.270Z,43.63
2023-05-22T23:52:02.257Z,43.71
2023-05-22T23:54:29.248Z,44.15
2023-05-22T23:56:56.252Z,43.54
2023-05-22T23:59:23.251Z,44.15
